Time;durP1;ratioP1;P1;durP2;ratioP2;P2;SDS_P1;SDS_P2;PMS_P1;PMS_P2;Temp;Humidity;BMP_temperature;BMP_pressure;BME280_temperature;BME280_humidity;BME280_pressure;Samples;Min_cycle;Max_cycle;Signal;HPM_P1;HPM_P2
2020/12/24 00:00:38;;;;;;;5.15;0.60;;;9.20;99.90;;;;;;4880943;29;20048;-77
2020/12/24 00:03:04;;;;;;;5.00;0.40;;;9.10;99.90;;;;;;4899357;29;20060;-77
2020/12/24 00:05:31;;;;;;;6.18;0.50;;;9.00;99.90;;;;;;4865035;29;20040;-77
2020/12/24 00:07:57;;;;;;;4.25;0.52;;;9.00;99.90;;;;;;4877515;29;20060;-78
2020/12/24 00:10:24;;;;;;;2.05;0.45;;;8.90;99.90;;;;;;4884331;29;20043;-77
2020/12/24 00:12:50;;;;;;;4.60;0.70;;;8.90;99.90;;;;;;4878775;29;20049;-77
2020/12/24 00:15:17;;;;;;;2.22;0.60;;;8.80;99.90;;;;;;4893914;29;20040;-78
2020/12/24 00:17:43;;;;;;;5.45;0.65;;;8.80;99.90;;;;;;4875707;29;20044;-78
2020/12/24 00:20:10;;;;;;;4.07;0.60;;;8.80;99.90;;;;;;4895862;29;20598;-78
2020/12/24 00:22:36;;;;;;;1.90;0.52;;;8.80;99.90;;;;;;4892666;29;20480;-78
2020/12/24 00:25:03;;;;;;;4.68;0.70;;;8.90;99.90;;;;;;4895621;29;20053;-78
2020/12/24 00:27:29;;;;;;;2.40;0.70;;;8.90;99.90;;;;;;4894861;29;20044;-78
2020/12/24 00:29:56;;;;;;;3.38;0.77;;;8.90;99.90;;;;;;4891702;29;20045;-77
2020/12/24 00:32:22;;;;;;;3.80;0.82;;;8.90;99.90;;;;;;4860400;29;20047;-77
2020/12/24 00:34:49;;;;;;;3.17;0.77;;;8.90;99.90;;;;;;4895373;29;20048;-77
2020/12/24 00:37:15;;;;;;;4.50;1.23;;;8.90;99.90;;;;;;4881164;29;20051;-78
2020/12/24 00:39:42;;;;;;;6.18;0.82;;;8.90;99.90;;;;;;4876319;29;20055;-77
2020/12/24 00:42:08;;;;;;;4.85;0.80;;;8.90;99.90;;;;;;4864143;29;20037;-77
2020/12/24 00:44:35;;;;;;;5.57;1.13;;;8.90;99.90;;;;;;4880180;29;20051;-78
2020/12/24 00:47:01;;;;;;;3.28;0.80;;;8.90;99.90;;;;;;4873401;29;20926;-77
2020/12/24 00:49:28;;;;;;;3.33;1.20;;;8.90;99.90;;;;;;4894840;29;20044;-79
2020/12/24 00:51:54;;;;;;;7.00;1.45;;;8.90;99.90;;;;;;4891692;29;20045;-78
2020/12/24 00:54:21;;;;;;;5.60;1.00;;;8.90;99.90;;;;;;4884520;29;20056;-78
2020/12/24 00:56:48;;;;;;;4.97;1.20;;;8.90;99.90;;;;;;4851100;29;20032;-78
2020/12/24 00:59:15;;;;;;;3.53;1.30;;;8.90;99.90;;;;;;4892687;29;20051;-77
2020/12/24 01:01:42;;;;;;;4.78;1.20;;;9.00;99.90;;;;;;4864537;29;20040;-78
2020/12/24 01:04:09;;;;;;;3.10;0.95;;;9.00;99.90;;;;;;4864485;29;20049;-78
2020/12/24 01:06:36;;;;;;;3.10;1.25;;;9.00;99.90;;;;;;4888522;29;20057;-77
2020/12/24 01:09:03;;;;;;;5.20;1.88;;;9.00;99.90;;;;;;4865393;29;20049;-77
2020/12/24 01:11:31;;;;;;;6.05;2.22;;;9.00;99.90;;;;;;4877603;29;20057;-77
2020/12/24 01:13:58;;;;;;;12.90;2.53;;;9.00;99.90;;;;;;4879585;29;20036;-77
2020/12/24 01:16:24;;;;;;;5.53;1.98;;;9.00;99.90;;;;;;4880066;29;20829;-77
2020/12/24 01:18:51;;;;;;;6.78;1.90;;;9.00;99.90;;;;;;4885360;29;20032;-77
2020/12/24 01:21:17;;;;;;;9.48;1.90;;;9.00;99.90;;;;;;4878804;29;20049;-78
2020/12/24 01:23:44;;;;;;;10.75;1.80;;;9.00;99.90;;;;;;4854741;29;20405;-77
2020/12/24 01:26:10;;;;;;;10.73;2.25;;;9.00;99.90;;;;;;4893075;29;20821;-78
2020/12/24 01:28:38;;;;;;;9.55;1.38;;;8.90;99.90;;;;;;4866175;29;20047;-78
2020/12/24 01:31:05;;;;;;;8.77;1.33;;;8.90;99.90;;;;;;4893601;29;20485;-78
2020/12/24 01:33:31;;;;;;;13.20;1.48;;;8.90;99.90;;;;;;4895311;29;20044;-78
2020/12/24 01:35:59;;;;;;;12.82;1.40;;;8.90;99.90;;;;;;4894979;29;20048;-78
2020/12/24 01:38:25;;;;;;;14.10;1.00;;;8.80;99.90;;;;;;4848827;29;20049;-78
2020/12/24 01:41:00;;;;;;;5.68;0.90;;;8.80;99.90;;;;;;4893297;29;20544;-78
2020/12/24 01:43:26;;;;;;;9.82;1.20;;;8.80;99.90;;;;;;4894400;29;20061;-78
2020/12/24 01:45:57;;;;;;;15.00;1.27;;;8.80;99.90;;;;;;4887022;29;20831;-78
2020/12/24 01:48:24;;;;;;;11.43;2.15;;;8.70;99.90;;;;;;4878436;29;20028;-78
2020/12/24 01:50:51;;;;;;;9.77;1.20;;;8.70;99.90;;;;;;4873105;29;20041;-78
2020/12/24 01:53:20;;;;;;;6.65;0.70;;;8.70;99.90;;;;;;4893278;29;20048;-78
2020/12/24 01:55:48;;;;;;;10.30;0.80;;;8.70;99.90;;;;;;4886264;29;20044;-78
2020/12/24 01:58:16;;;;;;;5.50;1.00;;;8.60;99.90;;;;;;4890265;29;20049;-76
2020/12/24 02:00:48;;;;;;;5.22;0.88;;;8.60;99.90;;;;;;4868005;29;20412;-78
2020/12/24 02:03:16;;;;;;;10.13;2.30;;;8.60;99.90;;;;;;4890360;29;20048;-79
2020/12/24 02:05:43;;;;;;;6.50;1.55;;;8.60;99.90;;;;;;4889078;29;20733;-77
2020/12/24 02:08:11;;;;;;;7.32;1.27;;;8.60;99.90;;;;;;4881178;29;20064;-80
2020/12/24 02:10:38;;;;;;;11.43;1.10;;;8.60;99.90;;;;;;4888464;29;20484;-77
2020/12/24 02:13:04;;;;;;;6.65;1.10;;;8.60;99.90;;;;;;4895830;29;20032;-77
2020/12/24 02:15:31;;;;;;;5.50;0.85;;;8.60;99.90;;;;;;4895789;29;20555;-77
2020/12/24 02:17:57;;;;;;;9.05;0.98;;;8.60;99.90;;;;;;4895845;29;20055;-77
2020/12/24 02:20:23;;;;;;;7.82;0.95;;;8.60;99.90;;;;;;4879257;29;20053;-78
2020/12/24 02:22:50;;;;;;;6.45;1.17;;;8.60;99.90;;;;;;4880762;29;20052;-77
2020/12/24 02:25:16;;;;;;;8.27;0.95;;;8.60;99.90;;;;;;4864701;29;20049;-77
2020/12/24 02:27:43;;;;;;;15.15;1.25;;;8.60;99.90;;;;;;4867396;29;20040;-78
2020/12/24 02:30:09;;;;;;;4.68;0.88;;;8.60;99.90;;;;;;4886593;29;20040;-77
2020/12/24 02:32:36;;;;;;;8.15;1.10;;;8.60;99.90;;;;;;4888543;29;21323;-77
2020/12/24 02:35:03;;;;;;;6.47;0.82;;;8.60;99.90;;;;;;4888990;29;20036;-78
2020/12/24 02:37:30;;;;;;;7.55;1.20;;;8.50;99.90;;;;;;4895703;29;20098;-77
2020/12/24 02:39:56;;;;;;;8.95;1.25;;;8.60;99.90;;;;;;4884527;29;20063;-78
2020/12/24 02:42:24;;;;;;;10.20;1.10;;;8.60;99.90;;;;;;4890674;29;20041;-77
2020/12/24 02:44:50;;;;;;;7.05;1.23;;;8.60;99.90;;;;;;4869487;29;20051;-77
2020/12/24 02:47:17;;;;;;;9.07;1.00;;;8.50;99.90;;;;;;4895547;29;20033;-78
2020/12/24 02:49:43;;;;;;;9.75;1.10;;;8.50;99.90;;;;;;4855500;29;20052;-77
2020/12/24 02:52:09;;;;;;;9.48;0.95;;;8.50;99.90;;;;;;4893170;29;20036;-77
2020/12/24 02:54:36;;;;;;;10.63;1.20;;;8.50;99.90;;;;;;4893983;29;20052;-77
2020/12/24 02:57:02;;;;;;;8.00;0.68;;;8.50;99.90;;;;;;4868188;29;20713;-77
2020/12/24 02:59:29;;;;;;;6.28;1.10;;;8.50;99.90;;;;;;4896435;29;20063;-78
2020/12/24 03:01:55;;;;;;;10.40;1.10;;;8.50;99.90;;;;;;4850527;29;20044;-78
2020/12/24 03:04:22;;;;;;;6.57;1.10;;;8.50;99.90;;;;;;4869922;29;20041;-78
2020/12/24 03:06:48;;;;;;;9.73;2.03;;;8.50;99.90;;;;;;4897593;29;20052;-78
2020/12/24 03:09:15;;;;;;;11.27;1.55;;;8.50;99.90;;;;;;4869119;29;20040;-77
2020/12/24 03:11:49;;;;;;;19.23;3.00;;;8.50;99.90;;;;;;4857330;29;20115;-77
2020/12/24 03:14:19;;;;;;;23.52;12.90;;;8.50;99.90;;;;;;4879622;29;20040;-77
2020/12/24 03:16:47;;;;;;;15.68;7.47;;;8.50;99.90;;;;;;4899866;29;20047;-77
2020/12/24 03:19:14;;;;;;;15.35;3.53;;;8.50;99.90;;;;;;4852059;29;20065;-77
2020/12/24 03:21:40;;;;;;;11.70;2.42;;;8.50;99.90;;;;;;4884478;29;20040;-77
2020/12/24 03:24:07;;;;;;;12.25;2.83;;;8.60;99.90;;;;;;4882216;29;20043;-77
2020/12/24 03:26:34;;;;;;;10.63;2.20;;;8.50;99.90;;;;;;4893756;29;20480;-77
2020/12/24 03:29:01;;;;;;;14.70;2.00;;;8.50;99.90;;;;;;4883469;29;20048;-77
2020/12/24 03:31:27;;;;;;;10.93;1.38;;;8.50;99.90;;;;;;4892132;29;20056;-76
2020/12/24 03:33:54;;;;;;;10.50;1.77;;;8.50;99.90;;;;;;4893715;29;20044;-77
2020/12/24 03:36:22;;;;;;;14.15;2.10;;;8.50;99.90;;;;;;4891824;29;20048;-77
2020/12/24 03:38:49;;;;;;;9.35;1.33;;;8.50;99.90;;;;;;4895001;29;20060;-76
2020/12/24 03:41:16;;;;;;;13.02;1.90;;;8.50;99.90;;;;;;4892505;29;20044;-76
2020/12/24 03:43:42;;;;;;;13.57;1.83;;;8.50;99.90;;;;;;4874012;29;20047;-76
2020/12/24 03:46:09;;;;;;;14.30;1.67;;;8.50;99.90;;;;;;4896703;29;20037;-77
2020/12/24 03:48:35;;;;;;;12.95;1.67;;;8.50;99.90;;;;;;4895755;29;20048;-76
2020/12/24 03:51:02;;;;;;;9.98;1.23;;;8.50;99.90;;;;;;4892573;29;20052;-76
2020/12/24 03:53:28;;;;;;;18.15;1.67;;;8.50;99.90;;;;;;4890062;29;20056;-77
2020/12/24 03:55:56;;;;;;;9.32;1.77;;;8.50;99.90;;;;;;4876342;29;20044;-77
2020/12/24 03:58:22;;;;;;;13.40;1.23;;;8.50;99.90;;;;;;4883126;29;20054;-76
2020/12/24 04:00:48;;;;;;;15.32;1.42;;;8.50;99.90;;;;;;4877230;29;20058;-76
2020/12/24 04:03:15;;;;;;;16.27;1.60;;;8.50;99.90;;;;;;4892553;29;20037;-76
2020/12/24 04:05:41;;;;;;;13.90;1.60;;;8.50;99.90;;;;;;4880180;29;20412;-77
2020/12/24 04:08:08;;;;;;;12.43;1.92;;;8.50;99.90;;;;;;4852835;29;593385;-77
2020/12/24 04:10:34;;;;;;;20.90;2.15;;;8.50;99.90;;;;;;4872476;29;20523;-77
2020/12/24 04:13:01;;;;;;;11.80;1.63;;;8.50;99.90;;;;;;4828396;29;20064;-77
2020/12/24 04:15:27;;;;;;;15.07;2.60;;;8.50;99.90;;;;;;4855105;29;20051;-77
2020/12/24 04:17:54;;;;;;;13.18;1.63;;;8.50;99.90;;;;;;4875611;29;20049;-77
2020/12/24 04:20:20;;;;;;;19.00;1.85;;;8.50;99.90;;;;;;4869445;29;20048;-77
2020/12/24 04:22:46;;;;;;;13.23;1.83;;;8.50;99.90;;;;;;4870054;29;20416;-77
2020/12/24 04:25:13;;;;;;;24.35;2.00;;;8.50;99.90;;;;;;4858198;29;20481;-77
2020/12/24 04:27:40;;;;;;;14.07;1.90;;;8.50;99.90;;;;;;4871444;29;20501;-77
2020/12/24 04:30:06;;;;;;;10.98;1.58;;;8.50;99.90;;;;;;4842941;29;20396;-76
2020/12/24 04:32:34;;;;;;;9.68;1.80;;;8.50;99.90;;;;;;4874539;29;20041;-77
2020/12/24 04:35:01;;;;;;;10.55;1.50;;;8.50;99.90;;;;;;4869919;29;20056;-77
2020/12/24 04:37:27;;;;;;;14.95;1.92;;;8.50;99.90;;;;;;4875743;29;20576;-77
2020/12/24 04:39:54;;;;;;;17.48;1.90;;;8.50;99.90;;;;;;4850106;29;20048;-77
2020/12/24 04:42:21;;;;;;;9.95;1.30;;;8.50;99.90;;;;;;4843732;29;20052;-77
2020/12/24 04:44:49;;;;;;;16.17;1.58;;;8.50;99.90;;;;;;4851404;29;20048;-77
2020/12/24 04:47:19;;;;;;;7.40;0.70;;;8.50;99.90;;;;;;4875733;29;20061;-77
2020/12/24 04:49:46;;;;;;;1.00;0.50;;;8.40;99.90;;;;;;4851397;29;20052;-77
2020/12/24 04:52:14;;;;;;;1.38;0.32;;;8.10;99.40;;;;;;4869603;29;20496;-77
2020/12/24 04:54:41;;;;;;;1.33;0.30;;;7.80;98.90;;;;;;4859381;29;20041;-77
2020/12/24 04:57:09;;;;;;;0.68;0.38;;;7.40;98.40;;;;;;4852918;29;20694;-77
2020/12/24 04:59:37;;;;;;;1.05;0.40;;;7.10;98.70;;;;;;4880343;29;20500;-77
2020/12/24 05:02:04;;;;;;;0.50;0.28;;;6.90;98.70;;;;;;4871246;29;20037;-77
2020/12/24 05:04:33;;;;;;;0.50;0.30;;;6.70;99.10;;;;;;4869687;29;20497;-77
2020/12/24 05:07:05;;;;;;;0.85;0.40;;;6.40;98.70;;;;;;4850992;29;20389;-77
2020/12/24 05:09:32;;;;;;;0.50;0.30;;;6.20;98.70;;;;;;4874418;29;20055;-77
2020/12/24 05:11:59;;;;;;;0.50;0.30;;;6.10;98.70;;;;;;4868347;29;20049;-77
2020/12/24 05:14:28;;;;;;;0.50;0.30;;;6.00;98.70;;;;;;4877913;29;20049;-78
2020/12/24 05:17:02;;;;;;;0.40;0.30;;;5.80;98.30;;;;;;4857852;29;20040;-78
2020/12/24 05:19:31;;;;;;;1.55;0.30;;;5.60;98.60;;;;;;4869513;29;20051;-81
2020/12/24 05:21:58;;;;;;;0.98;0.50;;;5.60;98.80;;;;;;4872617;29;20057;-78
2020/12/24 05:24:33;;;;;;;1.05;0.32;;;5.50;98.80;;;;;;4881143;29;20055;-78
2020/12/24 05:27:08;;;;;;;1.27;0.38;;;5.40;98.80;;;;;;4867371;29;20029;-78
2020/12/24 05:29:40;;;;;;;0.65;0.30;;;5.30;98.70;;;;;;4866899;29;20058;-79
2020/12/24 05:32:08;;;;;;;0.55;0.20;;;5.30;98.80;;;;;;4887480;29;20052;-78
2020/12/24 05:34:34;;;;;;;0.77;0.28;;;5.20;98.60;;;;;;4846128;29;20397;-78
2020/12/24 05:37:17;;;;;;;0.75;0.30;;;5.10;98.40;;;;;;4869245;29;21062;-77
2020/12/24 05:39:48;;;;;;;32.33;18.38;;;5.00;98.70;;;;;;4864102;29;20040;-77
2020/12/24 05:42:14;;;;;;;14.43;7.80;;;4.90;98.60;;;;;;4877763;29;20037;-77
2020/12/24 05:44:41;;;;;;;4.50;1.98;;;4.90;98.80;;;;;;4863715;29;20048;-78
2020/12/24 05:47:07;;;;;;;3.70;0.98;;;4.80;98.60;;;;;;4849139;29;20648;-77
2020/12/24 05:49:35;;;;;;;2.72;1.27;;;4.80;98.60;;;;;;4852653;29;20485;-77
2020/12/24 05:52:05;;;;;;;0.60;0.30;;;4.70;98.70;;;;;;4870115;29;20033;-78
2020/12/24 05:54:34;;;;;;;0.53;0.30;;;4.70;98.60;;;;;;4870975;29;20052;-78
2020/12/24 05:57:01;;;;;;;0.82;0.30;;;4.60;98.50;;;;;;4892049;29;20029;-78
2020/12/24 05:59:28;;;;;;;0.80;0.30;;;4.60;98.60;;;;;;4890233;29;20041;-77
2020/12/24 06:01:59;;;;;;;0.95;0.30;;;4.60;98.70;;;;;;4839072;29;20041;-78
2020/12/24 06:04:44;;;;;;;2.22;0.38;;;4.50;98.60;;;;;;4872058;29;20045;-78
2020/12/24 06:07:21;;;;;;;0.88;0.40;;;4.50;98.80;;;;;;4888764;29;20087;-78
2020/12/24 06:09:51;;;;;;;1.05;0.30;;;4.50;98.80;;;;;;4871866;29;20405;-78
2020/12/24 06:12:25;;;;;;;2.80;0.40;;;4.40;98.70;;;;;;4873288;29;20035;-78
2020/12/24 06:14:55;;;;;;;1.80;0.27;;;4.40;98.60;;;;;;4898014;29;20396;-78
2020/12/24 06:17:27;;;;;;;2.22;0.40;;;4.40;98.70;;;;;;4875287;29;20044;-78
2020/12/24 06:19:54;;;;;;;0.90;0.40;;;4.40;98.80;;;;;;4871672;29;20059;-78
2020/12/24 06:22:25;;;;;;;2.08;0.60;;;4.30;98.90;;;;;;4886971;29;20527;-78
2020/12/24 06:24:54;;;;;;;1.08;0.50;;;4.30;99.00;;;;;;4880450;29;20052;-78
2020/12/24 06:27:37;;;;;;;1.05;0.50;;;4.30;99.00;;;;;;4870574;29;20057;-78
2020/12/24 06:30:03;;;;;;;;;;;4.30;99.30;;;;;;4900115;29;20051;-78
2020/12/24 06:32:35;;;;;;;1.10;0.50;;;4.40;99.20;;;;;;4896402;29;20278;-78
2020/12/24 06:35:02;;;;;;;1.85;0.50;;;4.40;99.40;;;;;;4872127;29;20048;-78
2020/12/24 06:37:38;;;;;;;2.90;0.60;;;4.50;99.40;;;;;;4878143;29;20068;-78
2020/12/24 06:40:05;;;;;;;1.40;0.60;;;4.50;99.30;;;;;;4901124;29;20063;-78
2020/12/24 06:42:39;;;;;;;2.75;0.50;;;4.50;99.20;;;;;;4903178;29;20048;-78
2020/12/24 06:45:07;;;;;;;1.52;0.65;;;4.50;99.30;;;;;;4871784;29;20441;-78
2020/12/24 06:47:33;;;;;;;1.65;0.75;;;4.50;99.40;;;;;;4863599;29;20064;-78
2020/12/24 06:50:00;;;;;;;1.70;0.60;;;4.50;99.40;;;;;;4877452;29;20045;-78
2020/12/24 06:52:31;;;;;;;1.55;0.60;;;4.60;99.70;;;;;;4858067;29;20036;-78
2020/12/24 06:55:13;;;;;;;1.98;0.52;;;4.60;99.40;;;;;;4903479;29;20052;-78
2020/12/24 06:57:44;;;;;;;2.00;0.85;;;4.60;99.40;;;;;;4898973;29;20037;-78
2020/12/24 07:00:19;;;;;;;1.20;0.65;;;4.60;99.40;;;;;;4893534;29;20048;-78
2020/12/24 07:02:50;;;;;;;1.10;0.60;;;4.60;99.50;;;;;;4878004;29;20045;-78
2020/12/24 07:05:41;;;;;;;1.88;0.70;;;4.60;99.60;;;;;;4888818;29;20056;-78
2020/12/24 07:08:09;;;;;;;2.22;0.70;;;4.70;99.60;;;;;;4873804;29;20067;-78
2020/12/24 07:10:46;;;;;;;1.42;0.50;;;4.70;99.60;;;;;;4885232;29;20402;-78
2020/12/24 07:13:35;;;;;;;1.30;0.60;;;4.70;99.60;;;;;;4882909;29;20040;-78
2020/12/24 07:16:06;;;;;;;1.38;0.70;;;4.70;99.70;;;;;;4878822;29;20515;-78
2020/12/24 07:18:39;;;;;;;1.63;0.60;;;4.80;99.70;;;;;;4881980;29;20067;-78
2020/12/24 07:21:07;;;;;;;2.25;0.50;;;4.80;99.70;;;;;;4899580;29;20040;-78
2020/12/24 07:23:35;;;;;;;2.15;0.80;;;4.80;99.70;;;;;;4885639;29;20036;-78
2020/12/24 07:26:24;;;;;;;1.70;0.70;;;4.80;99.80;;;;;;4894636;29;20048;-78
2020/12/24 07:28:57;;;;;;;2.25;0.80;;;4.80;99.80;;;;;;4894011;29;20040;-78
2020/12/24 07:31:27;;;;;;;1.60;0.80;;;4.90;99.90;;;;;;4871209;29;20091;-78
2020/12/24 07:33:53;;;;;;;2.05;0.60;;;4.90;99.80;;;;;;4894396;29;20033;-78
2020/12/24 07:36:24;;;;;;;2.15;0.85;;;4.90;99.80;;;;;;4868825;29;20792;-78
2020/12/24 07:38:51;;;;;;;1.42;0.63;;;4.90;99.90;;;;;;4879186;29;20037;-78
2020/12/24 07:41:20;;;;;;;1.45;0.50;;;4.90;99.90;;;;;;4880111;29;20044;-78
2020/12/24 07:43:46;;;;;;;2.65;0.60;;;4.90;99.90;;;;;;4872491;29;20049;-78
2020/12/24 07:46:14;;;;;;;2.35;0.70;;;4.90;99.90;;;;;;4863018;29;20049;-77
2020/12/24 07:48:40;;;;;;;2.22;0.60;;;4.90;99.90;;;;;;4899279;29;20060;-78
2020/12/24 07:51:10;;;;;;;2.72;0.80;;;5.00;99.90;;;;;;4897726;29;20057;-77
2020/12/24 07:53:36;;;;;;;2.38;0.80;;;5.00;99.90;;;;;;4899069;29;20071;-77
2020/12/24 07:56:08;;;;;;;3.17;1.00;;;5.00;99.90;;;;;;4882090;29;20412;-77
2020/12/24 07:58:36;;;;;;;2.05;0.73;;;5.00;99.90;;;;;;4880647;29;20041;-77
2020/12/24 08:01:05;;;;;;;2.88;1.50;;;5.00;99.90;;;;;;4885047;29;20036;-78
2020/12/24 08:03:32;;;;;;;2.92;1.48;;;5.00;99.90;;;;;;4859602;29;20404;-77
2020/12/24 08:06:06;;;;;;;2.38;1.30;;;5.00;99.90;;;;;;4878843;29;20043;-77
2020/12/24 08:08:35;;;;;;;3.13;1.65;;;5.00;99.90;;;;;;4871169;29;20071;-77
2020/12/24 08:11:06;;;;;;;2.45;1.38;;;5.00;99.90;;;;;;4896882;29;20041;-78
2020/12/24 08:13:33;;;;;;;2.78;1.60;;;5.00;99.90;;;;;;4868342;29;20039;-78
2020/12/24 08:16:00;;;;;;;2.67;1.10;;;5.00;99.90;;;;;;4865141;29;20480;-78
2020/12/24 08:18:33;;;;;;;2.00;1.45;;;5.00;99.90;;;;;;4878689;29;20037;-78
2020/12/24 08:21:16;;;;;;;2.28;1.30;;;5.00;99.90;;;;;;4877828;29;20040;-78
2020/12/24 08:23:55;;;;;;;1.88;1.00;;;5.00;99.90;;;;;;4880055;29;20043;-78
2020/12/24 08:26:22;;;;;;;3.42;1.33;;;5.10;99.90;;;;;;4897017;29;20044;-78
2020/12/24 08:28:55;;;;;;;4.07;1.98;;;5.10;99.90;;;;;;4852071;29;20040;-76
2020/12/24 08:31:26;;;;;;;1.83;0.88;;;5.10;99.90;;;;;;4893184;29;20082;-77
2020/12/24 08:33:54;;;;;;;2.08;1.00;;;5.10;99.90;;;;;;4881960;29;20044;-77
2020/12/24 08:36:22;;;;;;;3.08;0.95;;;5.10;99.90;;;;;;4891905;29;20059;-77
2020/12/24 08:38:50;;;;;;;1.95;1.05;;;5.10;99.90;;;;;;4892143;29;20052;-76
2020/12/24 08:41:24;;;;;;;2.45;1.23;;;5.20;99.90;;;;;;4892713;29;20060;-76
2020/12/24 08:43:53;;;;;;;4.40;1.55;;;5.20;99.90;;;;;;4892580;29;20052;-77
2020/12/24 08:46:19;;;;;;;5.65;1.58;;;5.20;99.90;;;;;;4885093;29;20503;-77
2020/12/24 08:48:46;;;;;;;2.47;1.85;;;5.20;99.90;;;;;;4869451;29;20056;-77
2020/12/24 08:51:20;;;;;;;4.00;1.73;;;5.20;99.90;;;;;;4849261;29;20440;-77
2020/12/24 08:53:46;;;;;;;4.55;2.10;;;5.30;99.90;;;;;;4879317;29;20404;-77
2020/12/24 08:56:17;;;;;;;2.97;2.05;;;5.30;99.90;;;;;;4867068;29;20373;-76
2020/12/24 08:58:51;;;;;;;3.38;2.03;;;5.30;99.90;;;;;;4881774;29;20048;-76
2020/12/24 09:01:19;;;;;;;3.70;1.98;;;5.30;99.90;;;;;;4882903;29;20045;-76
2020/12/24 09:03:46;;;;;;;3.00;1.98;;;5.30;99.90;;;;;;4877360;29;20055;-76
2020/12/24 09:06:13;;;;;;;4.05;2.33;;;5.30;99.90;;;;;;4865818;29;20036;-76
2020/12/24 09:08:47;;;;;;;3.72;2.70;;;5.30;99.90;;;;;;4893072;29;20057;-77
2020/12/24 09:11:31;;;;;;;5.07;3.10;;;5.30;99.90;;;;;;4891928;29;20094;-76
2020/12/24 09:14:07;;;;;;;4.05;2.20;;;5.40;99.90;;;;;;4865843;29;20484;-76
2020/12/24 09:16:34;;;;;;;3.60;2.42;;;5.30;99.90;;;;;;4881804;29;20040;-76
2020/12/24 09:19:02;;;;;;;3.55;2.58;;;5.40;99.90;;;;;;4875376;29;20044;-76
2020/12/24 09:21:28;;;;;;;3.22;2.00;;;5.40;99.90;;;;;;4878409;29;20040;-76
2020/12/24 09:24:07;;;;;;;3.15;2.40;;;5.40;99.90;;;;;;4880438;29;20049;-78
2020/12/24 09:26:51;;;;;;;3.75;2.38;;;5.40;99.90;;;;;;4892640;29;20037;-76
2020/12/24 09:29:19;;;;;;;3.25;2.22;;;5.40;99.90;;;;;;4892542;29;20036;-76
2020/12/24 09:32:00;;;;;;;5.18;2.92;;;5.50;99.90;;;;;;4890261;29;20538;-77
2020/12/24 09:34:29;;;;;;;4.88;2.83;;;5.50;99.90;;;;;;4880829;29;20040;-76
2020/12/24 09:36:56;;;;;;;4.10;2.40;;;5.50;99.90;;;;;;4863703;29;20428;-77
2020/12/24 09:39:23;;;;;;;3.00;2.13;;;5.40;99.90;;;;;;4863624;29;20059;-76
2020/12/24 09:41:50;;;;;;;4.78;2.33;;;5.40;99.90;;;;;;4889124;29;20033;-76
2020/12/24 09:44:17;;;;;;;3.55;1.92;;;5.40;99.90;;;;;;4876507;29;20408;-76
2020/12/24 09:46:46;;;;;;;2.92;1.70;;;5.50;99.90;;;;;;4875291;29;20063;-76
2020/12/24 09:49:13;;;;;;;3.80;1.73;;;5.50;99.90;;;;;;4890200;29;20057;-75
2020/12/24 09:51:39;;;;;;;5.45;2.05;;;5.50;99.90;;;;;;4829435;29;20477;-76
2020/12/24 09:54:06;;;;;;;5.30;1.90;;;5.50;99.90;;;;;;4874021;29;20511;-76
2020/12/24 09:56:33;;;;;;;3.15;1.65;;;5.50;99.90;;;;;;4873483;29;20032;-76
2020/12/24 09:59:00;;;;;;;7.30;1.73;;;5.60;99.90;;;;;;4888265;29;20075;-76
2020/12/24 10:01:27;;;;;;;3.03;1.63;;;5.60;99.90;;;;;;4864949;29;20754;-76
2020/12/24 10:03:55;;;;;;;4.53;1.60;;;5.60;99.90;;;;;;4890171;29;20412;-77
2020/12/24 10:06:23;;;;;;;3.97;1.65;;;5.70;99.90;;;;;;4874625;29;20459;-76
2020/12/24 10:08:50;;;;;;;3.47;1.25;;;5.70;99.90;;;;;;4887091;29;20053;-76
2020/12/24 10:11:17;;;;;;;6.88;1.95;;;5.70;99.90;;;;;;4870880;29;20084;-77
2020/12/24 10:13:43;;;;;;;3.20;2.17;;;5.70;99.90;;;;;;4861760;29;20078;-76
2020/12/24 10:16:10;;;;;;;3.88;1.80;;;5.80;99.90;;;;;;4846422;29;20041;-76
2020/12/24 10:18:37;;;;;;;5.75;2.45;;;5.70;99.90;;;;;;4879436;29;20049;-78
2020/12/24 10:21:04;;;;;;;4.63;2.42;;;5.70;99.90;;;;;;4890853;29;20372;-76
2020/12/24 10:23:31;;;;;;;5.95;2.50;;;5.70;99.90;;;;;;4887837;29;20048;-76
2020/12/24 10:25:58;;;;;;;5.07;2.33;;;5.80;99.90;;;;;;4858498;29;20043;-76
2020/12/24 10:28:24;;;;;;;3.58;1.85;;;5.80;99.90;;;;;;4874053;29;20072;-76
2020/12/24 10:30:51;;;;;;;6.22;2.72;;;5.80;99.90;;;;;;4845307;29;20126;-77
2020/12/24 10:33:17;;;;;;;9.63;2.75;;;5.90;99.90;;;;;;4863020;29;20040;-76
2020/12/24 10:35:43;;;;;;;8.65;5.20;;;5.90;99.90;;;;;;4892642;29;20492;-76
2020/12/24 10:38:10;;;;;;;15.77;7.03;;;5.90;99.90;;;;;;4862701;29;20039;-76
2020/12/24 10:40:36;;;;;;;6.88;3.58;;;5.90;99.90;;;;;;4874436;29;20472;-76
2020/12/24 10:43:03;;;;;;;7.10;2.72;;;5.90;99.90;;;;;;4863498;29;20056;-77
2020/12/24 10:45:31;;;;;;;6.88;2.90;;;5.90;99.90;;;;;;4879306;29;20041;-76
2020/12/24 10:47:57;;;;;;;20.75;11.32;;;5.90;99.90;;;;;;4892238;29;20048;-76
2020/12/24 10:50:24;;;;;;;13.18;7.53;;;5.90;99.90;;;;;;4878277;29;20040;-76
2020/12/24 10:52:50;;;;;;;11.10;4.70;;;6.00;99.90;;;;;;4893390;29;20040;-77
2020/12/24 10:55:17;;;;;;;7.43;3.28;;;6.00;99.90;;;;;;4861931;29;20055;-77
2020/12/24 10:57:44;;;;;;;6.20;2.92;;;6.10;99.90;;;;;;4876758;29;20044;-76
2020/12/24 11:00:11;;;;;;;8.18;2.42;;;6.10;99.90;;;;;;4887432;29;20045;-77
2020/12/24 11:02:38;;;;;;;6.05;2.63;;;6.20;99.90;;;;;;4866282;29;20837;-76
2020/12/24 11:05:05;;;;;;;7.03;2.45;;;6.10;99.90;;;;;;4894194;29;20052;-77
2020/12/24 11:07:31;;;;;;;7.78;2.63;;;6.20;99.90;;;;;;4894431;29;20068;-78
2020/12/24 11:09:58;;;;;;;5.80;2.20;;;6.20;99.90;;;;;;4877052;29;20040;-77
2020/12/24 11:12:25;;;;;;;9.32;2.50;;;6.20;99.90;;;;;;4898337;29;20397;-77
2020/12/24 11:14:51;;;;;;;6.65;1.90;;;6.30;99.90;;;;;;4894226;29;20052;-76
2020/12/24 11:17:18;;;;;;;5.80;2.30;;;6.30;99.90;;;;;;4877083;29;20049;-77
2020/12/24 11:19:45;;;;;;;10.40;1.85;;;6.30;99.90;;;;;;4866425;29;20033;-76
2020/12/24 11:22:11;;;;;;;10.82;1.52;;;6.30;99.90;;;;;;4876520;29;20428;-76
2020/12/24 11:24:38;;;;;;;8.23;1.27;;;6.30;99.90;;;;;;4860430;29;20044;-78
2020/12/24 11:27:05;;;;;;;9.05;1.70;;;6.40;99.90;;;;;;4879579;29;20055;-76
2020/12/24 11:29:31;;;;;;;7.30;1.60;;;6.40;99.90;;;;;;4879894;29;20037;-76
2020/12/24 11:31:58;;;;;;;6.45;2.30;;;6.50;99.90;;;;;;4886148;29;20804;-76
2020/12/24 11:34:29;;;;;;;8.63;2.50;;;6.50;99.90;;;;;;4877414;29;20059;-76
2020/12/24 11:36:59;;;;;;;8.95;2.03;;;6.60;99.90;;;;;;4865674;29;20435;-77
2020/12/24 11:39:26;;;;;;;10.25;1.98;;;6.60;99.90;;;;;;4893022;29;20040;-77
2020/12/24 11:41:53;;;;;;;5.18;1.55;;;6.60;99.90;;;;;;4857291;29;20044;-77
2020/12/24 11:44:19;;;;;;;7.95;1.92;;;6.60;99.90;;;;;;4866584;29;20068;-77
2020/12/24 11:46:46;;;;;;;11.32;2.28;;;6.60;99.90;;;;;;4881514;29;20055;-76
2020/12/24 11:49:12;;;;;;;10.63;2.05;;;6.70;99.90;;;;;;4866259;29;20064;-77
2020/12/24 11:51:39;;;;;;;7.18;1.83;;;6.70;99.90;;;;;;4862879;29;20527;-77
2020/12/24 11:54:05;;;;;;;10.00;1.55;;;6.70;99.90;;;;;;4873390;29;20039;-78
2020/12/24 11:56:32;;;;;;;8.82;1.67;;;6.70;99.90;;;;;;4883623;29;20500;-76
2020/12/24 11:58:58;;;;;;;9.18;1.90;;;6.80;99.90;;;;;;4891493;29;20045;-76
2020/12/24 12:01:25;;;;;;;9.75;1.60;;;6.80;99.90;;;;;;4880349;29;20063;-77
2020/12/24 12:03:52;;;;;;;10.10;2.38;;;6.80;99.90;;;;;;4893962;29;20056;-77
2020/12/24 12:06:19;;;;;;;9.18;1.30;;;6.80;99.90;;;;;;4860034;29;20052;-77
2020/12/24 12:08:47;;;;;;;8.10;1.85;;;6.90;99.90;;;;;;4891306;29;20439;-77
2020/12/24 12:11:14;;;;;;;8.07;1.40;;;6.90;99.90;;;;;;4879983;29;20059;-77
2020/12/24 12:13:41;;;;;;;7.20;1.52;;;6.90;99.90;;;;;;4845864;29;20044;-77
2020/12/24 12:16:08;;;;;;;8.20;1.70;;;6.90;99.90;;;;;;4879320;29;20411;-79
2020/12/24 12:18:38;;;;;;;8.52;1.73;;;7.00;99.90;;;;;;4896054;29;20040;-77
2020/12/24 12:21:05;;;;;;;10.57;2.03;;;7.00;99.90;;;;;;4854233;29;20044;-79
2020/12/24 12:23:32;;;;;;;9.63;1.40;;;7.00;99.90;;;;;;4870961;29;20036;-79
2020/12/24 12:25:58;;;;;;;10.38;1.67;;;7.00;99.90;;;;;;4882333;29;20051;-79
2020/12/24 12:28:25;;;;;;;11.98;1.90;;;7.00;99.90;;;;;;4864559;29;20056;-78
2020/12/24 12:30:51;;;;;;;10.65;1.67;;;7.00;99.90;;;;;;4883395;29;20043;-78
2020/12/24 12:33:18;;;;;;;10.38;1.33;;;7.10;99.90;;;;;;4877988;29;20044;-78
2020/12/24 12:35:44;;;;;;;7.80;1.20;;;7.00;99.90;;;;;;4877128;29;20037;-78
2020/12/24 12:38:11;;;;;;;9.77;1.55;;;7.00;99.90;;;;;;4881262;29;20045;-78
2020/12/24 12:40:38;;;;;;;11.68;1.20;;;7.00;99.90;;;;;;4864375;29;20044;-78
2020/12/24 12:43:04;;;;;;;8.57;1.30;;;7.00;99.90;;;;;;4899482;29;20036;-78
2020/12/24 12:45:31;;;;;;;8.35;1.58;;;7.00;99.90;;;;;;4862430;29;20056;-78
2020/12/24 12:47:57;;;;;;;6.40;1.00;;;7.00;99.90;;;;;;4874019;29;20051;-78
2020/12/24 12:50:24;;;;;;;4.65;0.95;;;7.00;99.90;;;;;;4888975;29;20059;-79
2020/12/24 12:52:50;;;;;;;7.75;0.80;;;7.00;99.90;;;;;;4890548;29;20036;-78
2020/12/24 12:55:16;;;;;;;9.35;1.08;;;7.00;99.90;;;;;;4894597;29;20051;-78
2020/12/24 12:57:43;;;;;;;8.05;0.98;;;7.00;99.90;;;;;;4873002;29;20033;-78
2020/12/24 13:00:10;;;;;;;9.88;1.02;;;7.00;99.90;;;;;;4890751;29;20041;-78